Time;durP1;ratioP1;P1;durP2;ratioP2;P2;SDS_P1;SDS_P2;PMS_P1;PMS_P2;Temp;Humidity;BMP_temperature;BMP_pressure;BME280_temperature;BME280_humidity;BME280_pressure;Samples;Min_cycle;Max_cycle;Signal;HPM_P1;HPM_P2
2024/01/21 00:00:51;;;;;;;12.27;9.20;;;2.80;99.90;;;;;;4918979;29;20229;-78
2024/01/21 00:03:18;;;;;;;12.00;8.35;;;2.80;99.90;;;;;;4918798;29;20238;-81
2024/01/21 00:05:45;;;;;;;11.43;8.70;;;2.70;99.90;;;;;;4918833;29;20719;-78
2024/01/21 00:08:13;;;;;;;10.02;8.70;;;2.70;99.90;;;;;;4918479;29;20798;-78
2024/01/21 00:10:42;;;;;;;11.77;9.48;;;2.70;99.90;;;;;;4919202;29;20612;-82
2024/01/21 00:13:09;;;;;;;15.50;10.52;;;2.70;99.90;;;;;;4918392;29;20233;-78
2024/01/21 00:15:36;;;;;;;11.13;8.85;;;2.50;99.90;;;;;;4918330;29;20260;-77
2024/01/21 00:18:03;;;;;;;11.93;7.88;;;2.50;99.90;;;;;;4919100;29;20233;-76
2024/01/21 00:20:32;;;;;;;12.20;9.55;;;2.50;99.90;;;;;;4918218;29;20416;-77
2024/01/21 00:22:59;;;;;;;10.48;8.70;;;2.40;99.90;;;;;;4918688;29;20324;-77
2024/01/21 00:25:28;;;;;;;12.20;9.40;;;2.50;99.90;;;;;;4918176;29;20239;-77
2024/01/21 00:27:55;;;;;;;13.40;9.82;;;2.50;99.90;;;;;;4918543;29;20256;-76
2024/01/21 00:30:21;;;;;;;12.70;9.38;;;2.40;99.90;;;;;;4917937;29;20726;-76
2024/01/21 00:32:48;;;;;;;13.35;9.02;;;2.40;99.90;;;;;;4918438;29;20233;-76
2024/01/21 00:35:15;;;;;;;14.52;10.23;;;2.40;99.90;;;;;;4917159;29;20581;-77
2024/01/21 00:37:43;;;;;;;12.98;9.73;;;2.30;99.90;;;;;;4918717;29;20229;-77
2024/01/21 00:40:11;;;;;;;14.75;10.80;;;2.30;99.90;;;;;;4917563;29;20237;-78
2024/01/21 00:42:40;;;;;;;12.73;10.18;;;2.30;99.90;;;;;;4918345;29;20233;-80
2024/01/21 00:45:08;;;;;;;12.85;9.75;;;2.30;99.90;;;;;;4918163;29;20233;-81
2024/01/21 00:47:35;;;;;;;14.00;10.20;;;2.20;99.90;;;;;;4918049;29;20240;-81
2024/01/21 00:50:03;;;;;;;11.30;8.57;;;2.20;99.90;;;;;;4918170;29;20237;-80
2024/01/21 00:52:30;;;;;;;16.58;9.57;;;2.20;99.90;;;;;;4917572;29;20252;-81
2024/01/21 00:54:57;;;;;;;10.68;9.45;;;2.20;99.90;;;;;;4918204;29;20575;-80
2024/01/21 00:57:24;;;;;;;15.18;11.48;;;2.10;99.90;;;;;;4917758;29;20248;-82
2024/01/21 00:59:52;;;;;;;11.15;9.60;;;2.10;99.90;;;;;;4917976;29;20232;-80
2024/01/21 01:02:19;;;;;;;13.07;8.85;;;2.10;99.90;;;;;;4917216;29;20233;-80
2024/01/21 01:04:46;;;;;;;10.68;8.75;;;2.10;99.90;;;;;;4917809;29;20233;-81
2024/01/21 01:07:13;;;;;;;13.48;9.15;;;2.00;99.90;;;;;;4917253;29;20233;-80
2024/01/21 01:09:42;;;;;;;10.38;8.55;;;2.00;99.90;;;;;;4917269;29;20328;-77
2024/01/21 01:12:09;;;;;;;11.00;8.15;;;2.00;99.90;;;;;;4917714;29;20302;-77
2024/01/21 01:14:36;;;;;;;12.98;9.18;;;1.90;99.90;;;;;;4917406;29;20309;-77
2024/01/21 01:17:05;;;;;;;13.48;9.45;;;1.90;99.90;;;;;;4917163;29;20237;-77
2024/01/21 01:19:32;;;;;;;12.75;10.20;;;2.00;99.90;;;;;;4915677;29;20269;-76
2024/01/21 01:21:59;;;;;;;15.32;9.45;;;1.90;99.90;;;;;;4917054;29;20225;-80
2024/01/21 01:24:27;;;;;;;12.23;10.10;;;1.90;99.90;;;;;;4917493;29;20732;-81
2024/01/21 01:26:57;;;;;;;12.07;9.32;;;1.90;99.90;;;;;;4918365;29;20221;-80
2024/01/21 01:29:24;;;;;;;12.35;9.45;;;1.90;99.90;;;;;;4916937;29;20285;-80
2024/01/21 01:31:51;;;;;;;12.43;10.20;;;1.90;99.90;;;;;;4917557;29;20244;-80
2024/01/21 01:34:20;;;;;;;12.70;10.70;;;1.80;99.90;;;;;;4917018;29;20719;-82
2024/01/21 01:36:47;;;;;;;13.90;9.05;;;1.80;99.90;;;;;;4918894;29;20225;-80
2024/01/21 01:39:14;;;;;;;12.25;9.55;;;1.80;99.90;;;;;;4917120;29;20313;-80
2024/01/21 01:41:41;;;;;;;15.68;8.52;;;1.90;99.90;;;;;;4917688;29;20324;-80
2024/01/21 01:44:08;;;;;;;13.48;9.10;;;1.80;99.90;;;;;;4918430;29;20229;-80
2024/01/21 01:46:35;;;;;;;13.70;8.95;;;1.90;99.90;;;;;;4917090;29;20628;-77
2024/01/21 01:49:04;;;;;;;12.00;8.57;;;1.80;99.90;;;;;;4917388;29;20229;-76
2024/01/21 01:51:38;;;;;;;10.35;7.72;;;1.80;99.90;;;;;;4916840;29;20702;-76
2024/01/21 01:54:06;;;;;;;16.33;9.88;;;1.80;99.90;;;;;;4916608;29;20237;-76
2024/01/21 01:56:33;;;;;;;12.88;9.50;;;1.70;99.90;;;;;;4915826;29;20253;-77
2024/01/21 01:59:03;;;;;;;10.88;9.32;;;1.70;99.90;;;;;;4916664;29;20236;-77
2024/01/21 02:01:31;;;;;;;18.85;11.77;;;1.60;99.90;;;;;;4916712;29;20572;-77
2024/01/21 02:03:58;;;;;;;11.15;9.25;;;1.60;99.90;;;;;;4917055;29;20739;-77
2024/01/21 02:06:25;;;;;;;10.38;7.85;;;1.60;99.90;;;;;;4916637;29;20244;-76
2024/01/21 02:08:54;;;;;;;13.18;9.80;;;1.60;99.90;;;;;;4917886;29;20289;-79
2024/01/21 02:11:21;;;;;;;13.43;10.00;;;1.60;99.90;;;;;;4920040;29;20236;-79
2024/01/21 02:13:49;;;;;;;12.63;8.38;;;1.60;99.90;;;;;;4919432;29;20245;-79
2024/01/21 02:16:16;;;;;;;9.00;8.02;;;1.60;99.90;;;;;;4920903;29;20221;-79
2024/01/21 02:18:45;;;;;;;8.77;7.40;;;1.60;99.90;;;;;;4918122;29;20226;-80
2024/01/21 02:21:12;;;;;;;10.05;7.55;;;1.60;99.90;;;;;;4916747;29;20233;-81
2024/01/21 02:23:40;;;;;;;10.52;9.25;;;1.50;99.90;;;;;;4924061;29;20252;-79
2024/01/21 02:26:08;;;;;;;11.38;8.20;;;1.50;99.90;;;;;;4924768;29;20225;-80
2024/01/21 02:28:35;;;;;;;12.00;7.60;;;1.50;99.90;;;;;;4917713;29;20240;-77
2024/01/21 02:31:03;;;;;;;14.45;9.43;;;1.50;99.90;;;;;;4919156;29;20324;-80
2024/01/21 02:33:30;;;;;;;11.90;8.90;;;1.50;99.90;;;;;;4920145;29;20236;-80
2024/01/21 02:35:57;;;;;;;11.65;8.85;;;1.50;99.90;;;;;;4917820;29;20229;-81
2024/01/21 02:38:24;;;;;;;8.52;7.40;;;1.60;99.90;;;;;;4916978;29;20252;-81
2024/01/21 02:40:52;;;;;;;12.15;8.68;;;1.60;99.90;;;;;;4916561;29;20221;-81
2024/01/21 02:43:19;;;;;;;9.52;8.20;;;1.60;99.90;;;;;;4916719;29;20684;-81
2024/01/21 02:45:46;;;;;;;13.85;8.40;;;1.60;99.90;;;;;;4916245;29;20710;-81
2024/01/21 02:48:13;;;;;;;10.55;7.72;;;1.50;99.90;;;;;;4916703;29;20225;-81
2024/01/21 02:50:40;;;;;;;9.95;7.95;;;1.60;99.90;;;;;;4916260;29;20233;-81
2024/01/21 02:53:07;;;;;;;10.20;8.57;;;1.60;99.90;;;;;;4919511;29;20609;-81
2024/01/21 02:55:35;;;;;;;9.52;6.10;;;1.60;99.90;;;;;;4919603;29;20260;-80
2024/01/21 02:58:05;;;;;;;7.78;6.75;;;1.50;99.90;;;;;;4920253;29;20256;-77
2024/01/21 03:00:33;;;;;;;11.30;7.72;;;1.50;99.90;;;;;;4919937;29;20296;-77
2024/01/21 03:03:00;;;;;;;9.02;7.63;;;1.50;99.90;;;;;;4920306;29;20229;-81
2024/01/21 03:05:27;;;;;;;9.98;6.55;;;1.50;99.90;;;;;;4919614;29;20313;-80
2024/01/21 03:07:54;;;;;;;10.45;7.10;;;1.40;99.90;;;;;;4919509;29;20237;-80
2024/01/21 03:10:21;;;;;;;10.80;7.63;;;1.40;99.90;;;;;;4920026;29;20573;-81
2024/01/21 03:12:48;;;;;;;8.98;6.82;;;1.40;99.90;;;;;;4919187;29;20240;-81
2024/01/21 03:15:17;;;;;;;18.83;9.15;;;1.40;99.90;;;;;;4919697;29;20253;-80
2024/01/21 03:17:44;;;;;;;8.98;6.50;;;1.40;99.90;;;;;;4919479;29;20226;-80
2024/01/21 03:20:13;;;;;;;11.48;7.88;;;1.40;99.90;;;;;;4919650;29;20229;-81
2024/01/21 03:22:39;;;;;;;9.45;6.93;;;1.30;99.90;;;;;;4919232;29;20242;-77
2024/01/21 03:25:07;;;;;;;11.55;7.72;;;1.30;99.90;;;;;;4919547;29;20285;-77
2024/01/21 03:27:34;;;;;;;10.50;7.35;;;1.30;99.90;;;;;;4919220;29;20350;-77
2024/01/21 03:30:01;;;;;;;8.15;6.45;;;1.30;99.90;;;;;;4919537;29;20236;-77
2024/01/21 03:32:32;;;;;;;10.15;7.10;;;1.30;99.90;;;;;;4919489;29;20230;-77
2024/01/21 03:34:59;;;;;;;9.70;7.40;;;1.30;99.90;;;;;;4919023;29;20230;-81
2024/01/21 03:37:26;;;;;;;9.65;6.72;;;1.30;99.90;;;;;;4919368;29;20231;-81
2024/01/21 03:39:54;;;;;;;9.45;6.97;;;1.30;99.90;;;;;;4918948;29;20264;-81
2024/01/21 03:42:21;;;;;;;10.55;7.93;;;1.30;99.90;;;;;;4919326;29;20241;-81
2024/01/21 03:44:49;;;;;;;10.30;7.22;;;1.20;99.90;;;;;;4919019;29;20221;-81
2024/01/21 03:47:16;;;;;;;7.75;6.78;;;1.30;99.90;;;;;;4919454;29;20249;-81
2024/01/21 03:49:45;;;;;;;7.45;6.25;;;1.30;99.90;;;;;;4918693;29;20226;-81
2024/01/21 03:52:12;;;;;;;9.23;7.13;;;1.20;99.80;;;;;;4918852;29;20225;-81
2024/01/21 03:54:39;;;;;;;10.15;7.22;;;1.20;99.80;;;;;;4918973;29;20233;-80
2024/01/21 03:57:06;;;;;;;7.63;6.82;;;1.20;99.90;;;;;;4919146;29;20615;-80
2024/01/21 03:59:33;;;;;;;10.05;7.10;;;1.30;99.80;;;;;;4919286;29;20239;-77
2024/01/21 04:02:00;;;;;;;8.35;6.57;;;1.30;99.50;;;;;;4918141;29;20273;-77
2024/01/21 04:04:29;;;;;;;9.75;6.88;;;1.30;99.50;;;;;;4918543;29;20221;-77
2024/01/21 04:06:57;;;;;;;9.32;6.95;;;1.30;99.20;;;;;;4918582;29;20230;-77
2024/01/21 04:09:24;;;;;;;9.70;7.30;;;1.30;99.30;;;;;;4919016;29;20229;-77
2024/01/21 04:11:51;;;;;;;9.27;6.78;;;1.30;99.30;;;;;;4918189;29;20333;-80
2024/01/21 04:14:18;;;;;;;8.18;6.82;;;1.40;99.60;;;;;;4918649;29;20237;-77
2024/01/21 04:16:45;;;;;;;10.77;6.80;;;1.40;99.60;;;;;;4918125;29;20255;-77
2024/01/21 04:19:13;;;;;;;7.93;7.07;;;1.40;99.20;;;;;;4918476;29;20229;-77
2024/01/21 04:21:40;;;;;;;7.22;6.53;;;1.40;99.30;;;;;;4917986;29;20236;-77
2024/01/21 04:24:08;;;;;;;7.78;6.80;;;1.40;98.70;;;;;;4918706;29;20229;-76
2024/01/21 04:26:38;;;;;;;9.43;7.40;;;1.30;98.50;;;;;;4918385;29;20743;-77
2024/01/21 04:29:05;;;;;;;11.15;8.00;;;1.30;98.50;;;;;;4918254;29;20225;-81
2024/01/21 04:31:32;;;;;;;7.53;6.82;;;1.20;98.40;;;;;;4918556;29;20229;-81
2024/01/21 04:33:58;;;;;;;7.82;6.85;;;1.20;98.30;;;;;;4917856;29;20233;-81
2024/01/21 04:36:25;;;;;;;7.55;6.00;;;1.20;98.50;;;;;;4918547;29;20225;-81
2024/01/21 04:38:53;;;;;;;8.90;7.43;;;1.20;98.70;;;;;;4917895;29;20229;-80
2024/01/21 04:41:30;;;;;;;10.98;6.50;;;1.20;98.90;;;;;;4918211;29;20312;-81
2024/01/21 04:43:57;;;;;;;8.55;7.38;;;1.20;98.60;;;;;;4918693;29;20316;-81
2024/01/21 04:46:24;;;;;;;10.73;7.65;;;1.20;98.50;;;;;;4918313;29;20672;-81
2024/01/21 04:48:51;;;;;;;7.88;6.93;;;1.20;98.40;;;;;;4917796;29;20229;-81
2024/01/21 04:51:18;;;;;;;8.38;6.78;;;1.20;98.40;;;;;;4918094;29;20225;-81
2024/01/21 04:53:45;;;;;;;6.43;5.80;;;1.20;98.40;;;;;;4917519;29;20240;-81
2024/01/21 04:56:17;;;;;;;8.85;6.50;;;1.30;98.50;;;;;;4917999;29;20233;-81
2024/01/21 04:58:46;;;;;;;11.05;6.82;;;1.30;98.50;;;;;;4917772;29;20233;-80
2024/01/21 05:01:13;;;;;;;9.07;7.53;;;1.40;98.60;;;;;;4917814;29;20225;-81
2024/01/21 05:03:40;;;;;;;8.90;6.95;;;1.40;98.30;;;;;;4917743;29;20368;-82
2024/01/21 05:06:07;;;;;;;10.35;7.25;;;1.40;98.30;;;;;;4917188;29;20241;-81
2024/01/21 05:08:34;;;;;;;8.05;7.25;;;1.40;98.10;;;;;;4917831;29;20229;-81
2024/01/21 05:11:01;;;;;;;7.50;6.72;;;1.40;97.80;;;;;;4917331;29;20233;-77
2024/01/21 05:13:31;;;;;;;8.27;7.18;;;1.40;97.90;;;;;;4917502;29;20229;-77
2024/01/21 05:15:59;;;;;;;12.27;7.60;;;1.40;97.80;;;;;;4916721;29;20244;-81
2024/01/21 05:18:26;;;;;;;9.93;7.47;;;1.40;97.60;;;;;;4917763;29;20248;-77
2024/01/21 05:20:53;;;;;;;7.05;6.30;;;1.50;97.80;;;;;;4916946;29;20237;-77
2024/01/21 05:23:21;;;;;;;7.55;6.50;;;1.40;97.20;;;;;;4917351;29;20245;-77
2024/01/21 05:25:50;;;;;;;8.98;6.18;;;1.40;97.20;;;;;;4917255;29;20225;-80
2024/01/21 05:28:17;;;;;;;7.10;6.40;;;1.40;97.20;;;;;;4917710;29;20289;-81
2024/01/21 05:30:44;;;;;;;7.93;6.70;;;1.50;97.40;;;;;;4917549;29;20346;-77
2024/01/21 05:33:12;;;;;;;8.25;6.70;;;1.50;97.40;;;;;;4917036;29;20241;-77
2024/01/21 05:35:39;;;;;;;7.88;6.68;;;1.50;97.10;;;;;;4917212;29;20226;-77
2024/01/21 05:38:08;;;;;;;7.40;6.38;;;1.60;97.10;;;;;;4917116;29;20233;-81
2024/01/21 05:40:35;;;;;;;9.50;7.07;;;1.60;97.00;;;;;;4917657;29;20229;-77
2024/01/21 05:43:02;;;;;;;9.60;6.20;;;1.70;97.10;;;;;;4916852;29;20252;-81
2024/01/21 05:45:29;;;;;;;8.70;7.45;;;1.60;97.10;;;;;;4917467;29;20544;-77
2024/01/21 05:47:56;;;;;;;7.13;6.35;;;1.60;96.80;;;;;;4916912;29;20252;-77
2024/01/21 05:50:25;;;;;;;9.98;6.85;;;1.60;96.80;;;;;;4917405;29;20236;-81
2024/01/21 05:52:52;;;;;;;7.45;6.57;;;1.70;96.90;;;;;;4916084;29;20233;-78
2024/01/21 05:55:19;;;;;;;7.53;6.25;;;1.70;96.90;;;;;;4917247;29;20225;-77
2024/01/21 05:57:46;;;;;;;9.95;7.03;;;1.70;97.10;;;;;;4917344;29;20233;-77
2024/01/21 06:00:13;;;;;;;9.23;6.05;;;1.70;96.90;;;;;;4916364;29;20269;-77
2024/01/21 06:02:41;;;;;;;9.35;6.45;;;1.70;96.90;;;;;;4917271;29;20225;-77
2024/01/21 06:05:08;;;;;;;8.32;5.90;;;1.70;96.60;;;;;;4916645;29;20234;-77
2024/01/21 06:07:37;;;;;;;7.88;6.63;;;1.70;96.60;;;;;;4917203;29;20248;-81
2024/01/21 06:10:05;;;;;;;8.32;6.63;;;1.70;96.40;;;;;;4916514;29;20229;-81
2024/01/21 06:12:33;;;;;;;9.18;6.57;;;1.70;96.30;;;;;;4916913;29;20703;-77
2024/01/21 06:15:01;;;;;;;9.88;7.15;;;1.70;96.30;;;;;;4916253;29;20289;-81
2024/01/21 06:17:28;;;;;;;8.85;6.65;;;1.60;96.30;;;;;;4917151;29;20336;-81
2024/01/21 06:19:55;;;;;;;6.45;5.82;;;1.60;96.40;;;;;;4916602;29;20825;-80
2024/01/21 06:22:22;;;;;;;6.75;5.72;;;1.60;96.20;;;;;;4917082;29;20698;-77
2024/01/21 06:24:50;;;;;;;6.80;6.10;;;1.60;96.00;;;;;;4917216;29;20229;-77
2024/01/21 06:27:17;;;;;;;7.03;6.38;;;1.60;96.20;;;;;;4920112;29;20222;-77
2024/01/21 06:29:45;;;;;;;7.18;5.45;;;1.70;96.40;;;;;;4920649;29;20233;-80
2024/01/21 06:32:12;;;;;;;6.05;5.45;;;1.70;96.30;;;;;;4920229;29;20237;-81
2024/01/21 06:34:39;;;;;;;6.82;5.63;;;1.70;96.30;;;;;;4920620;29;20229;-81
2024/01/21 06:37:07;;;;;;;11.60;5.82;;;1.70;96.30;;;;;;4919925;29;20237;-81
2024/01/21 06:39:34;;;;;;;7.50;6.45;;;1.70;96.40;;;;;;4920881;29;20306;-81
2024/01/21 06:42:03;;;;;;;6.03;5.40;;;1.80;96.30;;;;;;4919928;29;20266;-81
2024/01/21 06:44:30;;;;;;;7.78;6.28;;;1.80;96.30;;;;;;4920567;29;20562;-77
2024/01/21 06:46:57;;;;;;;7.45;6.72;;;1.80;96.20;;;;;;4919873;29;20233;-78
2024/01/21 06:49:24;;;;;;;7.82;5.85;;;1.90;96.30;;;;;;4920138;29;20252;-77
2024/01/21 06:51:54;;;;;;;7.10;5.90;;;2.00;96.10;;;;;;4920007;29;20245;-81
2024/01/21 06:54:21;;;;;;;8.15;6.20;;;2.00;95.90;;;;;;4920267;29;20610;-81
2024/01/21 06:56:48;;;;;;;8.45;6.47;;;2.00;96.00;;;;;;4920318;29;20557;-81
2024/01/21 06:59:17;;;;;;;7.53;5.85;;;2.00;96.10;;;;;;4919747;29;20229;-81
2024/01/21 07:01:44;;;;;;;6.85;6.20;;;2.00;96.10;;;;;;4920187;29;20321;-81
2024/01/21 07:04:12;;;;;;;7.50;6.32;;;2.10;96.30;;;;;;4919164;29;20234;-77
2024/01/21 07:06:41;;;;;;;6.85;6.15;;;2.10;96.30;;;;;;4919945;29;20312;-77
2024/01/21 07:09:09;;;;;;;7.78;5.53;;;2.10;96.30;;;;;;4919723;29;20240;-77
2024/01/21 07:11:37;;;;;;;9.60;6.20;;;2.20;96.30;;;;;;4920040;29;20237;-77
2024/01/21 07:14:04;;;;;;;9.13;6.15;;;2.20;96.20;;;;;;4919370;29;20237;-77
2024/01/21 07:16:33;;;;;;;7.07;6.18;;;2.20;96.00;;;;;;4919982;29;20246;-77
2024/01/21 07:19:00;;;;;;;8.73;6.50;;;2.20;95.90;;;;;;4919502;29;20236;-77
2024/01/21 07:21:27;;;;;;;7.30;6.35;;;2.20;95.80;;;;;;4919609;29;20236;-77
2024/01/21 07:23:54;;;;;;;6.22;5.38;;;2.20;95.70;;;;;;4920031;29;20249;-81
2024/01/21 07:26:23;;;;;;;8.02;6.28;;;2.10;95.60;;;;;;4919438;29;20221;-81
2024/01/21 07:28:50;;;;;;;6.55;5.72;;;2.00;95.60;;;;;;4920085;29;20255;-81
2024/01/21 07:31:18;;;;;;;8.10;6.50;;;2.00;95.60;;;;;;4919397;29;20233;-81
2024/01/21 07:33:46;;;;;;;7.25;5.38;;;2.00;95.70;;;;;;4919637;29;20233;-77
2024/01/21 07:36:13;;;;;;;6.68;5.80;;;2.00;95.70;;;;;;4919130;29;20230;-77
2024/01/21 07:38:40;;;;;;;7.43;5.53;;;1.90;95.80;;;;;;4918930;29;20299;-77
2024/01/21 07:41:07;;;;;;;6.60;5.50;;;1.90;96.00;;;;;;4919473;29;20229;-81
2024/01/21 07:43:34;;;;;;;8.07;5.97;;;1.90;96.00;;;;;;4919409;29;20675;-81
2024/01/21 07:46:01;;;;;;;7.20;5.40;;;2.00;96.00;;;;;;4919452;29;20612;-77
2024/01/21 07:48:28;;;;;;;6.03;5.10;;;1.90;96.10;;;;;;4919372;29;20229;-76
2024/01/21 07:50:57;;;;;;;8.48;6.43;;;1.90;95.90;;;;;;4919252;29;20229;-77
2024/01/21 07:53:25;;;;;;;8.65;6.00;;;1.90;95.80;;;;;;4917845;29;20240;-77
2024/01/21 07:55:53;;;;;;;7.45;6.35;;;1.90;95.80;;;;;;4919236;29;20568;-77
2024/01/21 07:58:20;;;;;;;7.00;6.28;;;1.90;95.80;;;;;;4918307;29;20229;-77
2024/01/21 08:00:48;;;;;;;7.72;5.55;;;2.00;95.90;;;;;;4919416;29;20228;-76
2024/01/21 08:03:15;;;;;;;7.43;5.70;;;2.00;95.80;;;;;;4918688;29;20680;-76
2024/01/21 08:05:42;;;;;;;9.88;6.15;;;2.00;95.90;;;;;;4919349;29;20247;-81
2024/01/21 08:08:10;;;;;;;8.57;6.28;;;2.10;96.00;;;;;;4919356;29;20236;-80
2024/01/21 08:10:37;;;;;;;7.60;5.80;;;2.00;95.60;;;;;;4918969;29;20225;-81
2024/01/21 08:13:04;;;;;;;5.80;5.15;;;2.10;95.40;;;;;;4919390;29;20320;-80
2024/01/21 08:15:32;;;;;;;5.72;5.10;;;2.20;95.60;;;;;;4919742;29;20234;-81
2024/01/21 08:17:59;;;;;;;11.60;5.70;;;2.20;95.20;;;;;;4919199;29;20233;-81
2024/01/21 08:20:26;;;;;;;6.05;5.35;;;2.20;94.90;;;;;;4921421;29;20229;-80
2024/01/21 08:22:53;;;;;;;6.43;4.55;;;2.30;95.20;;;;;;4918886;29;20256;-81
2024/01/21 08:25:24;;;;;;;6.47;5.47;;;2.40;95.10;;;;;;4918620;29;20690;-81
2024/01/21 08:27:51;;;;;;;5.50;4.93;;;2.50;95.10;;;;;;4919120;29;20236;-81
2024/01/21 08:30:18;;;;;;;6.57;5.40;;;2.50;94.70;;;;;;4918135;29;20229;-80
2024/01/21 08:32:45;;;;;;;6.32;5.32;;;2.60;94.40;;;;;;4918393;29;20237;-81
2024/01/21 08:35:12;;;;;;;7.70;6.32;;;2.60;94.50;;;;;;4918046;29;20264;-80
2024/01/21 08:37:39;;;;;;;5.20;4.50;;;2.70;94.00;;;;;;4918335;29;20241;-77
2024/01/21 08:40:08;;;;;;;7.43;6.07;;;2.70;93.90;;;;;;4917969;29;20255;-77
2024/01/21 08:42:36;;;;;;;7.65;6.43;;;2.70;93.60;;;;;;4917773;29;20237;-77
2024/01/21 08:45:04;;;;;;;6.68;4.60;;;2.70;93.10;;;;;;4918339;29;20221;-77
2024/01/21 08:47:31;;;;;;;5.53;5.00;;;2.60;92.70;;;;;;4918059;29;20240;-80
2024/01/21 08:49:58;;;;;;;6.40;5.10;;;2.60;92.90;;;;;;4918317;29;20225;-77
2024/01/21 08:52:25;;;;;;;5.53;4.90;;;2.60;92.90;;;;;;4917313;29;20624;-77
2024/01/21 08:54:52;;;;;;;6.90;5.57;;;2.70;92.90;;;;;;4918344;29;20597;-77
2024/01/21 08:57:19;;;;;;;5.10;4.60;;;2.60;92.70;;;;;;4917025;29;20226;-77
2024/01/21 08:59:50;;;;;;;4.93;4.40;;;2.60;92.60;;;;;;4918097;29;20700;-77
2024/01/21 09:02:18;;;;;;;7.60;4.50;;;2.70;92.50;;;;;;4917473;29;20233;-77
2024/01/21 09:04:45;;;;;;;5.45;4.68;;;2.70;92.90;;;;;;4917723;29;20290;-77
2024/01/21 09:07:12;;;;;;;6.38;4.70;;;2.70;92.40;;;;;;4917520;29;20233;-77
2024/01/21 09:09:39;;;;;;;7.65;5.35;;;2.80;92.50;;;;;;4917078;29;20225;-77
2024/01/21 09:12:08;;;;;;;5.80;5.20;;;2.80;92.50;;;;;;4915768;29;20240;-77
2024/01/21 09:14:35;;;;;;;6.32;4.53;;;2.80;92.20;;;;;;4917214;29;20237;-77
2024/01/21 09:17:03;;;;;;;4.60;4.15;;;2.90;92.20;;;;;;4916930;29;20229;-77
2024/01/21 09:19:31;;;;;;;4.57;4.20;;;2.90;91.40;;;;;;4917262;29;20225;-77
2024/01/21 09:21:58;;;;;;;6.03;5.43;;;3.00;91.20;;;;;;4917292;29;20236;-77
2024/01/21 09:24:25;;;;;;;5.80;4.10;;;3.10;91.00;;;;;;4917008;29;20259;-77
2024/01/21 09:26:51;;;;;;;5.00;4.50;;;3.10;90.70;;;;;;4917514;29;20233;-77
2024/01/21 09:29:18;;;;;;;6.63;5.15;;;3.20;90.80;;;;;;4916800;29;20229;-78
2024/01/21 09:31:55;;;;;;;5.38;4.05;;;3.20;90.60;;;;;;4917521;29;20308;-77
2024/01/21 09:34:23;;;;;;;4.80;4.30;;;3.30;90.60;;;;;;4917180;29;20288;-77
2024/01/21 09:36:51;;;;;;;4.75;4.20;;;3.40;90.00;;;;;;4916902;29;20239;-77
2024/01/21 09:39:18;;;;;;;4.13;3.70;;;3.40;89.20;;;;;;4913559;29;20304;-78
2024/01/21 09:42:24;;;;;;;4.70;3.10;;;3.50;89.20;;;;;;4917157;29;20636;-77
2024/01/21 09:44:51;;;;;;;7.35;4.25;;;3.60;88.40;;;;;;4917221;29;21136;-81
2024/01/21 09:47:19;;;;;;;4.70;4.13;;;3.60;87.10;;;;;;4917216;29;20232;-81
2024/01/21 09:49:49;;;;;;;4.38;3.97;;;3.60;87.10;;;;;;4916604;29;20542;-80
2024/01/21 09:52:19;;;;;;;4.32;3.95;;;3.60;86.70;;;;;;4917202;29;20225;-81
2024/01/21 09:54:50;;;;;;;5.03;4.53;;;3.60;86.30;;;;;;4916908;29;20233;-81
2024/01/21 09:57:20;;;;;;;8.40;4.80;;;3.70;85.70;;;;;;4908497;29;20575;-80
2024/01/21 09:59:48;;;;;;;6.40;5.03;;;3.70;86.00;;;;;;4915559;29;20652;-81
2024/01/21 10:02:17;;;;;;;6.35;4.28;;;3.70;86.30;;;;;;4916950;29;20238;-81
2024/01/21 10:04:44;;;;;;;6.13;4.50;;;3.70;85.60;;;;;;4915848;29;20285;-80
2024/01/21 10:07:14;;;;;;;4.10;3.30;;;3.70;84.60;;;;;;4916664;29;20229;-81
2024/01/21 10:09:41;;;;;;;7.43;4.65;;;3.70;84.50;;;;;;4916588;29;20235;-81
2024/01/21 10:12:12;;;;;;;5.65;4.05;;;3.70;83.90;;;;;;4916955;29;20689;-81
2024/01/21 10:14:39;;;;;;;5.78;4.75;;;3.70;83.80;;;;;;4916580;29;20225;-81
2024/01/21 10:17:05;;;;;;;5.35;4.57;;;3.70;84.00;;;;;;4916862;29;20229;-81
2024/01/21 10:19:34;;;;;;;7.45;3.95;;;3.70;83.60;;;;;;4916446;29;20240;-80
2024/01/21 10:22:09;;;;;;;5.57;3.97;;;3.70;82.10;;;;;;4916870;29;20229;-81
2024/01/21 10:24:40;;;;;;;5.10;4.70;;;3.70;82.40;;;;;;4916665;29;20236;-81
2024/01/21 10:27:08;;;;;;;5.90;4.00;;;3.70;82.60;;;;;;4917190;29;20225;-81
2024/01/21 10:29:37;;;;;;;4.07;3.67;;;3.70;82.00;;;;;;4916631;29;20226;-81
2024/01/21 10:32:09;;;;;;;5.38;4.30;;;3.80;82.00;;;;;;4916430;29;20229;-81
2024/01/21 10:34:36;;;;;;;4.15;3.58;;;3.70;81.50;;;;;;4916329;29;20229;-82
2024/01/21 10:37:05;;;;;;;6.70;3.92;;;3.70;80.80;;;;;;4917021;29;20240;-82
2024/01/21 10:39:33;;;;;;;3.25;2.95;;;3.70;80.40;;;;;;4916409;29;20234;-82
2024/01/21 10:42:02;;;;;;;4.78;3.70;;;3.70;79.40;;;;;;4916675;29;20221;-82
2024/01/21 10:44:30;;;;;;;4.60;4.07;;;3.80;80.00;;;;;;4916951;29;20239;-81
2024/01/21 10:46:58;;;;;;;4.18;3.83;;;3.80;79.80;;;;;;4916375;29;20229;-80
2024/01/21 10:49:25;;;;;;;4.43;3.53;;;3.90;79.00;;;;;;4915968;29;20268;-77
2024/01/21 10:51:54;;;;;;;4.90;4.00;;;3.90;79.20;;;;;;4915892;29;20221;-77
2024/01/21 10:54:22;;;;;;;6.32;4.05;;;4.00;79.40;;;;;;4916808;29;20305;-81
2024/01/21 10:56:55;;;;;;;6.47;2.85;;;4.00;79.10;;;;;;4916216;29;20230;-81
2024/01/21 10:59:24;;;;;;;3.97;3.75;;;4.10;79.10;;;;;;4916837;29;20554;-80
2024/01/21 11:01:52;;;;;;;4.05;3.35;;;4.00;78.50;;;;;;4915644;29;20621;-81
2024/01/21 11:04:22;;;;;;;5.15;3.63;;;4.10;78.50;;;;;;4916868;29;20548;-77
2024/01/21 11:06:51;;;;;;;5.10;3.50;;;4.10;78.60;;;;;;4915429;29;20233;-77
2024/01/21 11:09:22;;;;;;;4.22;3.83;;;4.20;78.60;;;;;;4916099;29;20247;-77
2024/01/21 11:11:51;;;;;;;3.75;3.15;;;4.30;78.60;;;;;;4916070;29;20237;-76
2024/01/21 11:14:33;;;;;;;6.35;4.88;;;4.30;77.90;;;;;;4919374;29;20226;-77
2024/01/21 11:17:02;;;;;;;8.13;5.70;;;4.30;77.90;;;;;;4919105;29;20229;-77
2024/01/21 11:19:38;;;;;;;7.45;5.53;;;4.40;77.40;;;;;;4919343;29;20285;-77
2024/01/21 11:22:05;;;;;;;5.55;3.92;;;4.40;78.00;;;;;;4918694;29;20225;-80
2024/01/21 11:24:33;;;;;;;3.67;2.92;;;4.40;76.50;;;;;;4919784;29;20692;-80
2024/01/21 11:27:01;;;;;;;4.22;3.13;;;4.30;75.90;;;;;;4919317;29;20692;-81
2024/01/21 11:29:29;;;;;;;5.10;4.40;;;4.30;75.10;;;;;;4919889;29;20293;-83
2024/01/21 11:32:00;;;;;;;3.90;3.45;;;4.40;75.50;;;;;;4918881;29;20711;-82
2024/01/21 11:34:30;;;;;;;3.53;3.22;;;4.40;75.10;;;;;;4919626;29;20253;-81
2024/01/21 11:36:58;;;;;;;6.63;3.13;;;4.40;75.40;;;;;;4918834;29;20233;-81
2024/01/21 11:39:26;;;;;;;3.53;3.22;;;4.50;74.70;;;;;;4919686;29;20312;-81
2024/01/21 11:41:53;;;;;;;4.78;3.25;;;4.50;74.20;;;;;;4918855;29;20226;-81
2024/01/21 11:44:22;;;;;;;4.10;2.83;;;4.50;72.60;;;;;;4919613;29;20229;-81
2024/01/21 11:46:50;;;;;;;5.45;2.63;;;4.60;72.80;;;;;;4918749;29;20669;-81
2024/01/21 11:49:19;;;;;;;4.35;2.72;;;4.60;71.30;;;;;;4919689;29;20856;-82
2024/01/21 11:51:46;;;;;;;2.85;2.30;;;4.70;71.20;;;;;;4917916;29;20312;-76
2024/01/21 11:54:13;;;;;;;3.95;3.30;;;4.70;71.30;;;;;;4919636;29;20657;-81
2024/01/21 11:56:41;;;;;;;12.23;2.88;;;4.80;70.80;;;;;;4917394;29;20225;-78
2024/01/21 11:59:10;;;;;;;5.57;3.70;;;4.80;70.40;;;;;;4918663;29;20236;-77
2024/01/21 12:01:38;;;;;;;3.72;3.47;;;4.90;70.20;;;;;;4919251;29;20225;-77
2024/01/21 12:04:07;;;;;;;3.92;3.30;;;5.00;69.20;;;;;;4918647;29;20237;-82
2024/01/21 12:06:38;;;;;;;3.55;2.75;;;5.00;69.20;;;;;;4919006;29;20253;-77
2024/01/21 12:09:07;;;;;;;2.80;2.60;;;5.00;68.40;;;;;;4918617;29;20581;-77
2024/01/21 12:11:36;;;;;;;7.00;3.17;;;5.10;68.00;;;;;;4919332;29;20234;-81
2024/01/21 12:14:06;;;;;;;4.60;2.70;;;5.20;68.50;;;;;;4917784;29;20237;-81
2024/01/21 12:16:34;;;;;;;2.42;2.20;;;5.20;67.70;;;;;;4918914;29;20696;-82
2024/01/21 12:19:01;;;;;;;5.07;4.57;;;5.20;67.10;;;;;;4916990;29;20233;-81
2024/01/21 12:21:29;;;;;;;5.13;3.92;;;5.20;67.00;;;;;;4918847;29;20612;-80
2024/01/21 12:23:58;;;;;;;5.50;3.95;;;5.30;68.00;;;;;;4917939;29;20251;-81
2024/01/21 12:26:27;;;;;;;4.63;3.13;;;5.40;68.60;;;;;;4918756;29;20614;-77
2024/01/21 12:28:55;;;;;;;5.30;3.55;;;5.40;68.20;;;;;;4917822;29;20237;-76
2024/01/21 12:31:25;;;;;;;3.25;2.95;;;5.40;68.70;;;;;;4917650;29;20300;-77
2024/01/21 12:33:52;;;;;;;3.30;2.60;;;5.40;69.30;;;;;;4918096;29;20580;-76
2024/01/21 12:36:19;;;;;;;3.55;2.35;;;5.50;69.50;;;;;;4918420;29;20235;-81
2024/01/21 12:38:48;;;;;;;3.63;2.67;;;5.50;67.80;;;;;;4918167;29;20324;-81
2024/01/21 12:41:16;;;;;;;5.05;2.58;;;5.50;66.80;;;;;;4918380;29;20225;-80
2024/01/21 12:43:43;;;;;;;3.00;2.30;;;5.50;66.10;;;;;;4918600;29;20230;-80
2024/01/21 12:46:11;;;;;;;4.03;2.58;;;5.50;65.80;;;;;;4917777;29;20318;-81
2024/01/21 12:48:38;;;;;;;6.60;3.00;;;5.50;64.80;;;;;;4918306;29;20229;-81
2024/01/21 12:51:06;;;;;;;3.45;2.80;;;5.50;65.30;;;;;;4917572;29;20225;-80
2024/01/21 12:53:33;;;;;;;3.53;2.58;;;5.50;65.80;;;;;;4918161;29;20249;-77
2024/01/21 12:56:00;;;;;;;8.02;2.50;;;5.50;66.60;;;;;;4917615;29;20281;-77